Date,TemperatureHighF,TemperatureAvgF,TemperatureLowF,DewpointHighF,DewpointAvgF,DewpointLowF,HumidityHigh,HumidityAvg,HumidityLow,PressureMaxIn,PressureMinIn,WindSpeedMaxMPH,WindSpeedAvgMPH,GustSpeedMaxMPH,PrecipitationSumIn
2013-1-1,41.4,35.5,32.4,30.6,28.6,25.4,86,76,64,30.53,30.42,2,0,5,0.05
2013-1-2,38.1,29.5,24.1,29.1,20.5,13.9,86,70,39,30.72,30.51,3,0,8,0.00
2013-1-3,40.5,27.2,20.1,24.4,18.4,15.2,81,70,46,30.73,30.63,2,0,4,0.00
2013-1-4,41.4,31.9,28.2,22.6,20.4,19.2,70,63,44,30.71,30.61,4,0,11,0.00
2013-1-5,45.7,33.5,27.1,26.3,21.5,18.4,72,62,37,30.88,30.65,5,0,9,0.00
2013-1-6,44.4,37.2,31.3,30.1,27.5,22.1,79,68,50,30.68,30.53,2,0,4,0.00
2013-1-7,43.5,35.0,27.9,31.1,26.1,21.5,86,71,45,30.94,30.67,4,0,7,0.00
2013-1-8,54.1,35.1,25.2,35.9,27.7,22.7,91,76,41,30.90,30.82,2,0,4,0.00
2013-1-9,48.7,39.1,31.8,41.3,32.9,28.3,87,78,66,30.92,30.73,2,0,5,0.00
2013-1-10,72.1,42.6,34.7,31.9,27.8,8.5,78,59,10,31.11,29.85,2,0,6,0.01
2013-1-11,50.2,40.7,34.9,39.9,33.5,27.1,97,76,52,29.86,29.49,2,0,5,0.04
2013-1-12,52.2,44.6,39.4,50.8,43.7,38.5,100,97,92,29.57,29.49,2,0,3,0.01
2013-1-13,58.5,50.2,43.5,54.9,48.7,42.5,100,95,87,29.50,29.35,2,0,3,0.00
2013-1-14,57.6,49.0,38.3,57.6,44.3,33.6,100,84,60,29.72,29.36,2,0,4,0.25
2013-1-15,39.7,36.6,32.7,35.4,33.6,31.9,100,89,76,29.75,29.55,2,0,4,0.44
2013-1-16,39.9,35.5,32.4,39.9,35.2,32.1,100,99,96,29.55,29.24,2,0,4,0.50
2013-1-17,40.8,37.2,33.4,38.2,32.0,29.1,97,81,69,29.53,29.38,2,0,5,0.00
2013-1-18,38.1,30.6,26.4,29.1,18.4,6.2,84,62,31,29.86,29.47,4,0,8,0.00
2013-1-19,56.5,40.0,28.2,28.9,24.1,19.6,75,54,31,29.73,29.31,3,0,11,0.00
2013-1-20,55.8,40.4,28.9,32.1,18.1,-3.1,70,44,10,29.48,29.22,7,1,16,0.24
2013-1-21,42.6,30.5,23.9,20.1,15.0,8.5,64,53,35,29.49,29.20,7,0,11,0.00
2013-1-22,26.1,16.0,11.1,8.5,-2.5,-10.1,57,44,23,29.64,29.34,8,1,14,0.00
2013-1-23,23.7,16.5,9.3,11.0,-0.1,-5.1,77,49,29,29.69,29.48,5,0,13,0.00
2013-1-24,27.5,17.5,12.2,13.8,7.4,-1.2,88,66,30,29.88,29.45,8,0,18,0.01
2013-1-25,23.2,16.7,11.3,15.1,8.1,0.5,87,69,56,29.88,29.42,2,0,5,0.00
2013-1-26,32.9,24.0,16.5,26.9,19.7,12.9,90,84,71,29.82,29.44,3,0,8,0.00
2013-1-27,38.1,25.9,17.4,20.5,16.6,9.8,80,68,45,29.96,29.81,4,0,7,0.07
2013-1-28,46.9,37.0,28.6,44.8,33.3,19.7,93,86,69,29.82,29.44,4,0,9,0.01
2013-1-29,70.5,54.9,45.9,56.2,49.8,44.0,95,84,57,29.52,29.34,2,0,4,0.00
2013-1-30,69.6,55.3,48.9,59.4,52.9,46.1,100,92,68,29.34,28.67,7,0,13,1.18
2013-1-31,53.8,36.3,26.1,53.5,26.3,12.9,100,67,47,29.28,28.61,9,2,22,0.15
2013-2-1,29.5,21.9,13.6,22.4,10.3,2.4,87,61,37,29.74,29.21,8,1,17,0.01
2013-2-2,27.5,19.9,11.8,20.7,10.6,2.8,81,67,56,29.74,29.38,2,0,6,0.00
2013-2-3,34.9,27.4,23.0,29.0,22.3,12.1,88,81,61,29.39,29.20,8,0,17,0.01
2013-2-4,38.7,28.4,20.7,27.2,17.5,10.4,84,64,43,29.46,29.26,7,1,14,0.00
2013-2-5,37.6,33.0,29.7,33.0,30.0,24.1,100,89,79,29.33,29.23,3,0,6,0.01
2013-2-6,40.5,34.1,27.7,33.4,28.3,21.0,97,80,62,29.72,29.32,5,1,11,0.00
2013-2-7,40.5,32.0,26.2,26.2,23.3,20.2,80,70,57,29.79,29.58,3,0,7,0.00
2013-2-8,39.9,34.4,30.6,36.5,29.7,21.5,95,83,68,29.58,29.19,6,1,12,0.02
2013-2-9,45.7,31.1,25.3,23.2,17.3,8.2,70,58,25,29.78,29.36,9,1,18,0.01
2013-2-10,50.0,33.7,22.6,22.5,18.3,13.0,73,55,25,29.83,29.56,4,1,8,0.00
2013-2-11,67.1,47.0,34.7,51.7,34.5,16.6,96,67,22,29.57,29.10,9,1,23,0.13
2013-2-12,61.0,44.8,38.7,30.5,24.1,13.9,62,45,21,29.39,29.25,7,1,15,0.00
2013-2-13,43.0,36.2,31.1,32.4,27.3,21.3,96,71,48,29.34,29.07,4,0,8,0.00
2013-2-14,50.5,36.6,27.7,32.2,29.0,25.5,95,75,42,29.39,29.19,4,0,7,0.20
2013-2-15,53.8,39.5,33.1,35.2,30.9,26.2,92,73,42,29.43,29.34,6,0,10,0.05
2013-2-16,37.8,32.7,24.8,31.8,22.7,13.9,89,68,45,29.39,29.26,7,0,11,0.00
2013-2-17,32.2,24.2,20.5,16.5,10.7,2.8,75,57,35,29.59,29.26,8,1,16,0.00
2013-2-18,47.1,28.1,15.4,19.7,10.7,3.3,67,50,17,29.74,29.47,5,1,9,0.00
2013-2-19,55.2,37.5,30.0,42.0,28.5,19.2,92,70,54,29.47,29.07,7,1,14,0.08
2013-2-20,38.7,28.7,21.4,21.1,12.8,6.0,64,51,36,29.55,29.24,9,2,18,0.01
2013-2-21,42.4,26.9,20.8,16.3,12.6,7.8,70,56,30,29.71,29.50,6,1,16,0.00
2013-2-22,32.2,28.4,25.0,27.3,21.6,14.7,87,76,64,29.74,29.55,6,1,10,0.00
2013-2-23,50.5,37.1,30.2,40.1,32.9,26.0,96,85,66,29.55,29.23,4,1,7,0.00
2013-2-24,50.4,38.1,29.3,36.5,27.5,17.0,97,69,33,29.52,29.21,6,1,11,0.00
2013-2-25,44.6,33.7,25.5,22.1,19.4,16.5,75,57,35,29.60,29.51,4,1,8,0.00
2013-2-26,38.3,33.7,29.7,37.9,28.9,20.1,100,83,62,29.59,29.06,13,2,21,0.54
2013-2-27,50.2,41.3,35.6,45.3,36.1,30.7,100,83,55,29.10,28.98,5,1,13,0.04
2013-2-28,44.1,38.3,33.8,34.5,29.5,25.4,84,71,54,29.15,29.05,6,1,12,0.00
2013-3-1,41.7,36.3,32.4,30.5,26.4,21.9,78,67,51,29.31,29.15,5,1,8,0.00
2013-3-2,38.3,31.1,27.5,23.2,19.8,16.1,71,63,50,29.30,29.22,7,1,12,0.00
2013-3-3,40.1,32.1,27.0,22.7,18.4,14.3,74,58,38,29.28,29.21,6,1,14,0.00
2013-3-4,44.4,33.9,26.4,17.8,15.4,10.0,61,47,28,29.96,29.88,8,1,17,0.00
2013-3-5,49.5,37.2,26.6,30.2,17.6,9.0,89,48,24,29.98,29.70,8,1,14,0.00
2013-3-6,37.8,33.4,31.1,35.0,32.1,29.9,100,95,85,29.95,29.60,7,1,20,0.00
2013-3-7,52.9,37.1,30.9,32.3,29.2,25.5,91,75,38,30.09,29.95,8,1,14,0.35
2013-3-8,59.9,37.0,30.0,31.5,27.5,22.0,86,71,29,30.24,30.08,8,1,21,0.00
2013-3-9,45.0,41.7,0.0,27.9,25.8,24.1,56,51,46,29.95,29.19,2,1,4,0.00
2013-3-10,79.5,47.6,33.3,32.3,26.2,14.0,72,48,10,29.94,29.83,3,1,8,0.00
2013-3-11,57.9,51.6,40.6,47.4,40.0,24.6,86,67,36,29.91,29.60,3,1,7,0.00
2013-3-12,54.9,48.4,36.5,50.7,41.1,28.3,96,77,51,29.71,29.51,7,1,11,0.32
2013-3-13,47.5,37.5,29.8,29.0,24.0,15.1,76,59,31,29.81,29.66,9,1,16,0.00
2013-3-14,48.2,34.4,26.2,20.8,16.9,12.3,66,49,29,29.88,28.96,8,2,19,0.32
2013-3-15,58.3,42.0,28.6,32.2,24.3,14.9,69,51,29,29.81,28.90,7,1,14,0.00
2013-3-16,53.8,43.3,34.9,41.2,35.0,30.7,89,73,57,29.78,29.51,5,1,11,0.00
2013-3-17,39.2,35.9,34.2,32.4,27.0,20.8,90,71,51,30.09,29.77,5,1,11,0.00
2013-3-18,37.4,32.2,29.7,31.8,28.9,23.0,100,88,62,30.13,29.73,3,0,7,0.01
2013-3-19,58.6,40.4,31.8,40.9,25.6,-3.4,99,66,12,29.78,29.59,11,1,17,0.17
2013-3-20,53.4,39.0,28.9,28.3,14.5,-3.1,74,40,12,29.83,29.62,7,2,15,0.00
2013-3-21,40.1,30.5,24.6,26.6,14.3,5.7,75,52,29,29.74,29.63,7,1,15,0.00
2013-3-22,48.2,33.1,23.7,19.2,15.4,10.6,66,49,24,29.86,29.73,7,1,14,0.00
2013-3-23,54.7,38.2,26.6,23.7,19.3,10.3,71,50,17,29.88,29.77,5,1,10,0.00
2013-3-24,43.5,34.6,31.5,30.4,23.7,18.7,91,65,43,29.85,29.48,6,1,10,0.00
2013-3-25,39.6,34.5,30.9,34.8,31.9,29.7,96,90,77,29.57,29.38,4,0,6,0.34
2013-3-26,47.7,38.0,31.3,34.3,29.5,24.5,95,74,45,29.87,29.56,7,1,14,0.02
2013-3-27,50.4,37.9,30.7,34.4,28.0,25.0,82,68,44,29.99,29.86,6,1,12,0.00
2013-3-28,49.5,39.5,33.4,31.9,28.2,25.1,75,65,48,30.09,29.93,4,1,16,0.00
2013-3-29,55.0,44.1,35.2,33.4,27.7,16.8,79,55,25,30.11,30.00,5,1,11,0.00
2013-3-30,61.5,46.1,35.1,27.0,20.2,0.3,66,40,10,30.08,29.83,7,1,12,0.00
2013-3-31,48.6,44.4,41.7,46.3,37.1,25.0,96,77,46,29.83,29.49,2,0,4,0.20
2013-4-1,58.5,46.5,35.2,45.7,35.7,21.1,95,68,41,29.73,29.50,7,1,15,0.01
2013-4-2,49.3,37.6,29.8,21.1,14.8,0.3,59,41,16,30.53,29.73,8,1,17,0.00
2013-4-3,52.7,37.5,28.8,19.5,13.5,-2.7,58,40,13,30.11,29.89,7,1,15,0.00
2013-4-4,51.6,36.7,24.8,28.6,13.6,2.9,66,41,15,30.11,29.73,4,1,10,0.00
2013-4-5,67.3,47.8,34.9,34.6,25.0,8.2,85,49,10,29.77,29.54,8,1,14,0.00
2013-4-6,60.3,44.0,32.7,25.5,17.7,2.4,61,37,10,30.00,28.40,5,1,9,0.00
2013-4-7,76.5,55.5,38.8,41.4,34.8,15.9,67,47,10,29.91,29.65,4,1,9,0.00
2013-4-8,82.8,66.6,54.0,46.7,41.9,32.4,64,43,17,29.78,29.63,4,1,9,0.00
2013-4-9,87.1,71.5,60.4,53.4,48.7,41.8,61,46,22,29.81,29.62,6,1,11,0.00
2013-4-10,93.2,76.8,64.4,56.4,49.4,36.9,56,41,15,29.68,29.49,8,1,21,0.00
2013-4-11,84.7,69.0,58.3,57.0,52.8,50.3,84,58,36,29.94,29.55,8,1,21,0.00
2013-4-12,70.3,58.6,50.9,62.4,54.0,38.9,100,86,58,29.97,29.77,8,2,14,0.33
2013-4-13,71.4,55.7,46.4,40.3,32.9,17.4,72,46,18,30.16,29.97,8,1,14,0.00
2013-4-14,72.1,55.4,42.8,39.2,33.5,22.8,69,45,21,30.33,30.16,6,1,11,0.00
2013-4-15,66.7,59.4,53.4,51.2,46.6,38.0,80,63,53,30.44,30.29,3,0,8,0.00
2013-4-16,82.9,65.3,54.0,60.7,55.3,49.4,89,72,47,30.44,30.27,4,1,9,0.11
2013-4-17,81.5,63.6,0.0,62.0,58.0,52.6,92,75,64,30.38,29.16,7,2,14,0.13
2013-4-18,78.4,66.2,60.4,65.1,58.3,53.3,90,76,56,29.92,29.65,4,1,11,0.00
2013-4-19,75.0,63.5,50.5,65.2,57.4,38.0,97,81,62,29.65,29.30,4,1,13,0.67
2013-4-20,61.9,50.3,40.3,40.2,30.0,15.9,67,47,20,30.05,29.49,8,2,17,0.00
2013-4-21,57.4,44.5,34.7,30.1,24.4,17.1,66,46,25,30.28,30.05,7,1,13,0.00
2013-4-22,60.6,47.1,38.3,37.0,31.4,25.1,74,55,31,30.25,30.07,8,1,14,0.00
2013-4-23,61.5,48.7,38.5,44.9,38.2,31.8,79,67,48,30.09,29.79,5,1,10,0.00
2013-4-24,79.0,59.5,45.1,59.3,49.4,40.8,92,71,40,29.80,29.45,6,1,14,0.06
2013-4-25,67.1,52.7,43.0,41.9,32.6,20.2,71,48,23,30.01,29.76,7,1,11,0.00
2013-4-26,69.6,53.8,43.0,38.0,33.5,27.9,71,47,25,30.17,30.01,5,1,12,0.00
2013-4-27,74.1,58.7,47.5,45.2,37.6,29.8,70,46,26,30.11,29.95,7,1,11,0.00
2013-4-28,60.8,53.5,49.6,50.3,45.5,40.2,89,75,56,29.96,29.82,4,0,8,0.13
2013-4-29,61.7,55.3,51.6,57.8,52.8,48.2,96,91,72,29.83,29.73,4,0,7,0.01
2013-4-30,60.1,55.9,52.9,57.7,54.4,52.0,100,95,87,29.94,29.17,5,1,10,0.01
2013-5-1,74.1,59.9,50.9,53.4,40.5,19.2,94,54,14,29.34,29.22,7,1,12,0.00
2013-5-2,73.6,58.5,49.1,47.8,43.5,38.5,79,59,34,30.12,29.33,6,1,14,0.00
2013-5-3,73.6,58.6,49.3,51.2,44.7,38.5,81,62,31,30.08,29.96,5,1,11,0.00
2013-5-4,73.8,56.5,46.8,46.3,41.6,36.5,83,60,28,30.02,29.86,6,1,11,0.01
2013-5-5,66.9,54.4,44.2,43.4,40.0,35.8,81,60,33,29.93,29.82,8,1,13,0.00
2013-5-6,57.0,52.3,46.9,56.8,49.0,40.3,100,89,66,29.88,29.76,7,1,13,0.09
2013-5-7,60.1,57.8,55.2,59.8,57.6,54.8,99,99,99,29.76,29.64,8,3,15,1.33
2013-5-8,69.1,57.4,51.8,61.6,55.0,51.5,99,92,64,29.72,29.63,4,0,8,0.32
2013-5-9,74.8,61.4,51.6,61.5,55.3,51.4,100,82,50,29.73,29.62,4,1,10,0.01
2013-5-10,82.2,67.1,57.7,64.7,57.1,47.0,96,73,30,29.73,29.57,4,1,9,0.27
2013-5-11,74.7,64.5,58.6,68.5,61.6,52.9,100,91,73,29.59,29.44,4,0,102,0.15
2013-5-12,64.8,56.2,46.2,53.9,25.6,0.1,82,39,10,29.73,29.49,6,1,14,0.01
2013-5-13,61.7,50.1,42.6,23.3,11.5,-2.6,44,25,10,29.88,29.72,5,1,11,0.00
2013-5-14,66.6,51.8,37.6,32.7,14.2,-1.2,61,26,10,29.92,29.72,4,1,10,0.00
2013-5-15,85.5,67.0,51.1,57.0,37.9,17.8,63,35,18,29.72,29.42,6,0,12,0.00
2013-5-16,77.4,70.1,63.7,65.3,49.6,38.0,91,50,30,30.02,28.81,5,1,10,0.02
2013-5-17,84.7,70.4,58.8,58.6,49.2,32.5,83,51,17,30.17,30.01,4,1,9,0.00
2013-5-18,71.6,65.1,60.4,56.6,50.0,33.8,85,60,29,30.26,30.16,4,1,9,0.00
2013-5-19,70.7,63.0,57.9,65.8,60.6,55.7,100,92,80,30.25,30.13,3,0,8,0.01
2013-5-20,84.6,72.5,63.5,69.2,63.3,55.6,100,76,40,30.16,30.03,4,1,8,0.02
2013-5-21,91.2,76.3,65.5,65.6,61.4,45.9,85,63,23,30.05,29.92,4,1,11,0.00
2013-5-22,90.3,74.9,64.9,65.6,59.7,39.7,95,65,17,30.00,29.90,6,1,12,1.20
2013-5-23,79.9,68.3,64.0,70.9,64.9,60.8,100,89,61,29.96,29.81,4,0,9,0.18
2013-5-24,64.6,55.7,45.0,61.6,35.4,13.1,91,51,18,30.25,29.83,6,1,12,0.00
2013-5-25,68.7,52.7,39.2,25.0,16.3,2.0,53,27,10,30.28,30.17,6,1,13,0.00
2013-5-26,74.8,58.6,44.6,21.6,13.3,2.7,39,19,10,30.30,30.18,5,1,13,0.00
2013-5-27,68.2,59.8,50.9,37.8,20.7,1.9,46,24,10,30.34,30.23,4,1,9,0.00
2013-5-28,81.5,66.4,54.7,58.8,49.5,34.2,70,55,37,30.25,30.10,4,1,50,0.11
2013-5-29,89.8,76.6,64.9,60.1,53.7,33.3,76,49,15,30.19,30.12,4,1,9,0.00
2013-5-30,90.9,78.8,69.4,59.8,53.5,40.7,57,43,18,30.26,30.16,4,1,7,0.00
2013-5-31,90.9,78.2,66.9,56.4,50.5,34.6,64,41,14,30.22,30.07,4,1,8,0.00
2013-6-1,91.8,79.5,69.6,58.4,54.3,43.6,60,44,21,30.10,29.96,4,1,9,0.00
2013-6-2,83.3,74.9,68.4,67.1,58.2,49.8,79,57,33,29.97,29.90,4,1,10,0.22
2013-6-3,81.0,71.5,63.1,62.6,56.1,43.6,81,60,27,30.06,29.91,4,0,10,0.12
2013-6-4,77.4,65.7,54.3,45.1,30.5,10.7,59,31,10,30.20,30.06,4,1,10,0.00
2013-6-5,80.8,68.2,56.8,48.3,41.1,26.5,64,39,15,30.23,30.08,5,1,11,0.00
2013-6-6,66.6,64.3,62.4,60.0,51.2,40.0,86,64,42,30.10,29.91,4,0,8,0.59
2013-6-7,68.2,65.2,63.5,64.5,61.8,58.8,92,89,85,29.91,29.73,4,0,8,0.28
2013-6-8,81.1,68.4,60.3,62.1,55.3,46.0,90,66,31,30.17,29.82,4,1,8,0.00
2013-6-9,78.6,70.8,63.9,61.5,55.5,49.2,73,59,40,30.26,30.15,4,1,8,0.00
2013-6-10,81.7,70.4,65.7,73.3,65.2,60.4,93,84,69,30.16,29.87,4,0,8,1.20
2013-6-11,81.7,71.4,63.3,67.9,59.2,49.8,93,68,34,29.94,29.86,6,1,13,0.00
2013-6-12,113.4,77.0,65.7,95.2,58.5,48.5,81,55,30,29.96,29.86,8,1,8,0.00
2013-6-13,82.6,71.1,64.4,67.2,59.8,46.2,84,68,45,29.87,28.48,5,1,11,0.01
2013-6-14,80.8,69.2,61.7,46.9,40.3,20.2,52,36,12,30.07,28.62,5,1,12,0.00
2013-6-15,83.1,71.0,58.5,50.6,38.0,18.4,62,34,10,30.16,30.06,4,1,8,0.78
2013-6-16,79.9,72.2,64.0,59.8,50.0,28.5,60,46,22,30.10,29.97,4,1,9,0.00
2013-6-17,91.9,76.6,67.5,60.7,54.4,36.9,62,48,15,30.04,29.95,4,1,7,0.00
2013-6-18,76.1,70.9,65.7,66.3,61.3,58.1,80,72,60,29.99,29.87,2,0,6,1.13
2013-6-19,85.1,69.1,62.8,58.8,52.1,31.6,79,58,15,30.20,29.97,4,1,8,0.00
2013-6-20,86.0,71.2,62.8,59.7,54.8,41.7,77,58,25,30.30,30.20,6,1,11,0.01
2013-6-21,88.9,72.6,60.8,52.4,47.4,30.8,60,43,13,30.34,30.27,5,1,11,0.00
2013-6-22,93.4,75.1,62.8,58.2,50.6,27.0,68,46,11,30.31,30.17,4,1,8,0.00
2013-6-23,93.6,76.5,67.5,62.5,57.0,38.2,76,54,20,30.94,30.14,4,1,8,0.00
2013-6-24,89.1,75.7,69.6,68.8,59.0,38.6,78,58,21,30.24,30.11,6,1,14,1.35
2013-6-25,91.8,78.1,68.7,66.9,60.7,41.4,77,58,27,30.12,29.98,5,1,13,0.01
2013-6-26,89.1,75.8,68.5,65.1,58.4,46.4,72,55,29,30.00,29.91,4,1,7,0.04
2013-6-27,84.2,74.4,69.4,67.4,62.4,58.6,76,67,45,29.92,29.71,6,1,12,0.15
2013-6-28,89.4,74.9,67.3,65.8,57.6,46.6,72,56,29,29.71,29.57,4,1,8,0.01
2013-6-29,89.4,74.5,66.4,59.0,50.6,27.8,68,46,16,29.78,29.61,4,1,10,0.22
2013-6-30,87.3,74.3,66.7,63.9,59.7,56.3,73,61,38,29.91,29.77,5,1,11,0.00
2013-7-1,84.6,75.7,70.3,66.6,61.1,55.9,72,61,40,30.03,29.90,5,1,11,0.04
2013-7-2,83.1,76.2,72.1,66.8,62.4,59.3,76,63,46,30.20,30.02,5,1,14,0.01
2013-7-3,81.7,75.6,71.6,67.8,63.4,60.4,75,66,53,30.28,30.19,4,0,8,0.02
2013-7-4,89.4,78.6,70.9,65.7,61.7,54.2,73,57,33,30.30,30.22,4,1,12,0.00
2013-7-5,89.1,79.5,71.4,63.5,60.3,52.6,70,53,30,30.28,30.18,4,1,11,0.00
2013-7-6,93.4,80.4,72.3,63.0,58.9,46.4,66,50,20,30.27,30.13,4,1,10,0.00
2013-7-7,88.9,76.2,68.4,63.2,59.2,53.7,70,57,35,30.18,30.08,4,1,8,0.21
2013-7-8,88.7,75.6,68.2,65.0,58.2,43.5,74,57,26,30.19,30.11,4,1,8,0.01
2013-7-9,85.8,76.2,71.6,67.0,60.2,54.4,70,58,40,30.19,30.07,4,0,11,0.05
2013-7-10,87.1,76.9,72.1,68.5,63.0,56.6,70,62,46,30.08,29.93,4,0,8,0.50
2013-7-11,85.1,75.6,70.7,61.1,57.7,51.6,65,54,33,30.02,29.94,3,0,8,0.00
2013-7-12,73.0,69.0,65.5,60.7,57.4,51.8,72,67,50,30.15,30.00,4,1,8,0.46
2013-7-13,81.5,73.1,67.5,64.6,60.5,57.6,76,65,47,30.33,30.13,4,0,8,0.04
2013-7-14,91.2,78.2,71.2,68.1,61.3,47.7,75,58,26,30.40,30.33,4,1,9,0.01
2013-7-15,94.5,79.8,70.9,64.3,59.5,49.1,68,52,25,30.40,30.29,4,1,7,0.00
2013-7-16,94.3,81.1,73.8,67.6,59.9,48.2,64,50,25,30.36,30.27,4,1,8,0.00
2013-7-17,96.1,82.7,75.0,66.9,59.9,44.9,64,48,19,30.33,30.19,4,1,9,0.04
2013-7-18,98.2,84.2,75.4,66.5,60.6,38.8,65,47,13,30.22,30.09,4,1,7,0.00
2013-7-19,95.7,82.2,73.8,66.5,60.6,48.1,62,49,24,30.10,29.95,3,1,8,0.01
2013-7-20,92.5,80.7,72.7,66.2,57.8,40.5,63,47,17,29.99,29.89,4,1,8,0.00
2013-7-21,86.9,77.1,72.7,62.8,58.4,50.8,66,53,32,30.03,29.96,3,0,7,0.02
2013-7-22,85.5,75.1,70.3,66.1,61.7,53.9,74,64,38,30.02,29.85,5,0,9,1.33
2013-7-23,89.4,76.6,70.5,68.2,60.2,47.8,78,59,25,29.85,29.75,4,1,9,0.18
2013-7-24,83.1,73.0,66.7,59.7,50.7,33.1,68,48,19,30.02,29.78,5,1,11,0.02
2013-7-25,82.6,68.0,59.2,44.3,36.3,16.9,52,34,10,30.13,30.01,4,1,9,0.00
2013-7-26,86.7,70.4,59.5,48.8,39.0,17.0,58,36,10,30.17,30.08,4,1,8,0.00
2013-7-27,80.4,70.8,65.1,62.3,56.2,48.3,69,60,41,30.11,29.98,4,0,8,0.18
2013-7-28,87.1,72.6,65.7,61.6,56.1,38.1,73,58,23,30.07,29.94,4,1,11,0.25
2013-7-29,81.9,68.5,59.5,49.6,40.5,16.2,60,39,10,30.25,30.08,4,1,7,0.01
2013-7-30,83.8,70.1,59.7,49.2,42.6,20.3,58,39,12,30.30,30.21,4,1,8,0.00
2013-7-31,78.8,70.0,64.9,58.0,52.5,47.6,69,54,36,30.22,30.06,4,1,11,0.11
2013-8-1,81.9,72.4,66.4,61.9,57.3,50.8,74,60,35,30.06,29.89,4,0,7,0.02
2013-8-2,85.1,72.9,65.1,55.9,48.3,23.9,65,44,16,30.05,29.95,4,0,8,0.00
2013-8-3,74.7,69.3,65.7,60.3,52.9,44.7,69,57,41,30.04,28.90,2,0,4,0.21
2013-8-4,84.0,68.9,61.5,55.2,44.7,18.8,69,47,10,30.12,28.91,4,1,11,0.00
2013-8-5,83.3,68.0,58.1,47.1,36.7,14.5,62,36,10,30.18,30.08,4,1,7,0.00
2013-8-6,81.9,69.0,61.9,58.1,51.4,41.7,68,54,30,30.12,30.06,4,0,6,0.58
2013-8-7,86.4,73.3,68.5,62.3,58.8,53.0,70,61,36,30.12,30.04,4,0,10,0.46
2013-8-8,79.9,74.3,69.6,66.4,62.8,58.7,76,68,56,30.10,30.02,2,0,5,0.12
2013-8-9,83.7,76.3,72.5,71.1,65.3,59.0,83,69,46,30.06,29.97,4,0,11,0.07
2013-8-10,85.8,74.2,70.0,62.1,55.0,32.0,71,54,17,30.16,30.05,2,1,4,0.02
2013-8-11,89.6,75.7,69.8,59.0,53.8,39.2,64,49,18,30.19,30.07,4,1,8,0.00
2013-8-12,88.9,76.2,68.5,60.1,53.5,29.6,66,48,16,30.86,29.98,4,1,8,0.00
2013-8-13,88.0,74.7,66.9,62.2,55.6,39.7,71,53,23,29.99,29.83,4,1,8,0.09
2013-8-14,77.9,64.9,56.3,44.3,30.5,11.5,49,30,10,30.18,29.93,5,1,12,0.00
2013-8-15,79.9,64.2,55.2,42.6,27.6,9.4,57,30,10,30.27,30.17,4,1,8,0.00
2013-8-16,84.2,67.2,56.7,43.7,31.9,14.9,54,30,10,30.25,30.19,5,1,8,0.00
2013-8-17,80.8,67.9,58.1,45.9,39.1,18.9,57,37,10,30.34,30.26,4,1,8,0.00
2013-8-18,71.2,64.9,61.5,52.4,47.9,43.1,62,54,38,30.33,30.24,4,1,8,0.12
2013-8-19,78.1,67.5,61.5,58.8,54.2,48.9,70,63,48,30.25,30.13,4,0,6,0.02
2013-8-20,86.9,73.0,64.9,61.0,50.7,23.3,73,50,10,30.26,30.16,4,1,8,0.00
2013-8-21,87.4,74.5,67.5,61.0,53.1,39.9,61,48,27,30.27,30.14,4,1,7,0.01
2013-8-22,88.3,75.1,68.0,58.6,52.7,39.2,65,47,18,30.17,30.02,4,0,8,0.00
2013-8-23,73.6,69.1,63.3,57.5,53.7,49.8,65,58,46,30.20,30.03,6,0,11,0.32
2013-8-24,85.6,68.7,60.8,54.2,42.7,18.2,70,45,10,30.40,30.20,4,1,8,0.01
2013-8-25,86.5,69.9,61.0,49.0,40.1,17.1,54,37,10,30.46,30.31,4,1,7,0.00
2013-8-26,89.6,72.8,62.8,50.2,44.1,23.6,56,39,10,30.33,30.09,3,1,7,0.00
2013-8-27,85.3,76.7,70.0,57.2,53.1,46.7,53,44,32,30.08,29.98,4,1,8,0.00
2013-8-28,74.7,73.2,70.5,64.5,60.4,54.3,74,65,50,30.02,29.89,103,0,103,0.41
2013-8-29,87.3,75.3,71.2,64.1,58.4,35.7,76,59,18,30.10,29.93,4,1,7,0.01
2013-8-30,90.3,75.5,67.8,59.6,54.2,34.4,66,51,15,30.10,29.94,4,1,8,0.00
2013-8-31,85.3,76.7,70.2,62.1,58.4,49.5,71,54,33,29.96,29.87,4,0,8,0.00
2013-9-1,90.3,76.6,69.1,58.5,53.5,37.7,64,47,17,29.93,29.85,4,1,12,0.00
2013-9-2,89.6,77.2,70.0,60.0,54.2,35.2,66,47,15,29.90,29.81,4,1,7,0.00
2013-9-3,86.4,72.7,63.5,52.8,40.4,17.7,58,35,10,30.07,29.84,6,1,11,0.00
2013-9-4,83.7,67.6,57.6,44.9,33.1,12.9,58,33,10,30.17,30.06,4,1,8,0.00
2013-9-5,84.7,69.1,59.7,47.3,33.4,14.7,51,30,10,30.21,30.10,6,1,11,0.00
2013-9-6,80.1,63.5,54.1,31.5,17.5,3.9,40,19,10,30.33,30.19,4,1,10,0.00
2013-9-7,82.2,66.5,55.9,37.1,23.6,8.0,45,22,10,30.20,30.01,4,1,7,0.00
2013-9-8,87.1,72.3,63.1,46.9,39.7,22.9,52,32,10,30.13,29.97,4,1,9,0.00
2013-9-9,79.3,67.6,60.3,50.6,33.9,12.7,55,31,11,30.26,30.12,4,1,8,0.00
2013-9-10,91.8,76.1,65.7,57.3,52.7,38.5,64,47,17,30.24,29.04,3,0,7,0.00
2013-9-11,92.8,79.4,71.6,59.2,52.5,28.1,59,42,11,30.23,29.09,4,0,8,0.00
2013-9-12,91.8,77.4,70.9,57.8,47.5,26.0,56,38,10,30.09,29.83,4,1,9,0.00
2013-9-13,76.5,66.7,55.6,47.5,30.8,9.9,53,30,10,30.04,29.81,6,1,14,0.00
2013-9-14,72.0,57.3,47.5,30.9,16.3,1.2,48,24,10,30.22,30.03,5,1,10,0.00
2013-9-15,78.1,62.2,48.4,36.8,23.9,8.6,45,26,10,30.27,30.13,4,1,8,0.00
2013-9-16,69.8,62.6,57.9,46.2,39.3,30.2,57,43,24,30.30,30.08,5,1,9,0.07
2013-9-17,72.1,57.6,48.7,37.2,13.5,-2.0,45,21,10,30.48,30.30,5,1,11,0.00
2013-9-18,74.7,57.4,45.3,24.2,13.7,0.5,39,19,10,30.38,30.22,25,1,25,0.00
2013-9-19,77.7,62.3,7.0,40.2,29.9,-12.6,47,32,10,30.24,30.12,97,1,97,0.00
2013-9-20,82.2,67.2,58.5,45.9,39.7,18.7,55,40,10,30.14,29.99,4,0,10,0.00
2013-9-21,70.9,64.6,60.3,53.2,48.3,44.6,63,56,43,30.00,29.75,7,0,11,0.47
2013-9-22,77.4,60.0,51.8,47.0,34.6,11.0,63,43,10,30.04,29.81,4,1,9,0.01
2013-9-23,68.4,55.7,49.8,32.6,18.2,1.6,47,26,10,30.17,30.03,4,1,10,0.00
2013-9-24,76.1,56.5,45.0,27.9,17.0,2.8,48,25,10,30.18,30.02,4,1,8,0.00
2013-9-25,56.1,51.4,0.0,30.7,26.5,17.8,45,38,22,30.07,29.95,4,1,8,0.00
2013-9-26,70.5,33.7,0.0,26.8,15.9,3.5,11,5,10,30.06,28.94,2,0,4,0.00
2013-9-27,77.0,61.5,52.3,35.8,21.4,5.7,41,23,10,30.15,29.03,4,1,11,0.00
2013-9-28,65.8,59.9,54.9,37.8,29.2,7.1,52,33,11,30.24,30.14,3,1,7,0.00
2013-9-29,83.7,59.7,50.5,35.1,22.1,4.1,49,28,10,30.15,29.99,4,1,8,0.00
2013-9-30,88.3,62.8,51.6,31.0,19.4,6.7,42,22,10,30.02,29.91,4,1,8,0.00
2013-10-1,88.7,68.8,59.4,35.9,24.5,11.8,41,21,10,30.02,29.93,4,1,12,0.00
2013-10-2,94.3,69.7,59.0,38.1,26.8,12.4,42,23,10,30.04,29.95,4,1,8,0.00
2013-10-3,86.7,70.5,62.2,38.8,30.7,17.1,37,25,10,30.07,29.97,4,1,8,0.00
2013-10-4,95.2,72.3,64.2,41.3,32.3,16.9,41,26,10,30.04,29.96,4,1,9,0.00
2013-10-5,90.7,74.1,66.0,42.4,31.4,16.3,39,23,10,30.05,29.93,4,1,8,0.00
2013-10-6,96.6,74.6,64.4,43.2,31.7,15.9,43,24,10,29.95,29.82,7,1,15,0.00
2013-10-7,71.2,62.9,51.1,51.8,36.7,5.3,56,39,10,30.00,29.67,4,1,12,0.00
2013-10-8,75.6,56.4,47.5,25.7,13.0,-0.2,41,21,10,30.22,30.00,5,1,11,0.28
2013-10-9,60.6,54.7,49.6,25.9,9.9,-1.2,36,18,10,30.27,30.18,7,1,12,0.02
2013-10-10,65.5,51.8,50.5,39.6,31.9,7.5,61,47,10,30.18,29.10,4,1,9,1.10
2013-10-11,59.4,55.7,52.0,53.7,45.2,39.0,82,68,61,29.87,29.82,4,0,9,1.22
2013-10-12,62.4,59.9,56.8,59.8,55.8,50.6,96,87,78,30.02,29.85,4,1,11,0.31
2013-10-13,58.5,57.0,56.1,55.5,53.4,51.7,90,88,83,30.15,30.01,4,0,8,0.47
2013-10-14,63.3,57.7,53.6,53.6,47.6,35.7,89,71,37,30.17,30.06,3,0,5,0.02
2013-10-15,72.5,59.5,53.1,49.8,34.2,8.6,77,46,10,30.07,29.91,4,1,7,0.00
2013-10-16,70.5,60.3,52.0,43.4,35.4,18.8,56,41,15,29.91,29.73,3,0,6,0.00
2013-10-17,73.0,63.5,55.4,47.4,40.6,19.5,54,44,18,29.75,29.54,6,1,14,0.07
2013-10-18,74.8,55.9,49.5,22.8,4.8,-4.8,30,13,10,29.85,29.70,4,1,10,0.00
2013-10-19,62.4,52.6,45.5,30.9,10.0,-5.1,39,19,10,29.82,29.59,4,0,11,0.01
2013-10-20,64.4,50.0,40.8,6.7,-2.4,-9.4,19,11,10,29.91,29.72,5,1,12,0.00
2013-10-21,74.3,52.0,41.2,14.3,0.2,-10.2,22,12,10,29.95,29.74,4,1,9,0.00
2013-10-22,62.8,51.5,41.9,20.4,3.7,-10.6,31,15,10,29.75,29.66,4,0,11,0.00
2013-10-23,48.6,43.0,39.0,5.9,-6.1,-11.9,22,12,10,29.73,29.53,4,1,8,0.00
2013-10-24,54.9,40.6,34.5,6.5,-5.9,-15.7,26,14,10,29.95,29.73,5,1,10,0.00
2013-10-25,55.9,39.5,32.4,0.2,-9.7,-16.4,18,12,10,30.12,29.94,4,1,13,0.00
2013-10-26,60.3,42.9,31.1,3.2,-9.8,-18.6,14,10,10,30.11,29.74,4,1,14,0.00
2013-10-27,58.1,49.2,45.3,1.9,-5.0,-8.0,10,10,10,29.94,29.00,3,1,8,0.00
2013-10-28,64.8,48.8,38.7,6.8,-5.4,-13.3,10,10,10,30.14,29.07,4,0,6,0.00
2013-10-29,72.0,49.9,39.0,12.1,-4.2,-11.6,14,10,10,30.25,30.13,4,1,8,0.00
2013-10-30,68.7,55.6,46.8,21.1,7.6,-5.2,31,16,10,30.17,30.00,4,0,5,0.04
2013-10-31,67.5,59.7,54.9,41.4,29.8,20.9,52,33,19,30.03,29.58,3,0,9,0.02
2013-11-1,81.5,62.2,54.1,46.8,22.9,-1.2,58,29,10,29.59,29.41,7,1,14,0.25
2013-11-2,75.2,53.9,44.2,14.8,-0.9,-8.8,14,10,10,29.77,29.55,6,1,14,0.00
2013-11-3,65.7,46.5,36.7,7.5,-4.8,-14.7,18,11,10,30.30,29.76,6,1,16,0.00
2013-11-4,47.1,36.6,29.3,-6.6,-14.7,-20.4,10,10,10,30.47,29.49,4,0,8,0.00
2013-11-5,51.8,42.8,34.2,5.0,-8.7,-16.6,17,11,10,29.96,29.48,3,0,7,0.00
2013-11-6,75.4,54.7,45.9,18.2,7.9,-1.7,30,16,10,29.79,29.38,5,0,55,0.00
2013-11-7,57.7,50.9,36.3,30.7,5.0,-15.1,39,17,10,29.44,29.24,7,1,17,0.09
2013-11-8,58.5,39.9,34.2,2.1,-12.2,-16.6,10,10,10,29.67,29.44,6,1,13,0.01
2013-11-9,64.8,42.0,32.4,6.8,-10.6,-18.0,10,10,10,29.67,28.95,4,1,9,0.00
2013-11-10,67.8,47.6,38.1,9.2,-6.3,-13.6,10,10,10,29.61,28.94,7,1,14,0.00
2013-11-11,62.4,44.8,34.3,5.2,-8.4,-16.5,10,10,10,29.65,29.36,3,0,8,0.00
2013-11-12,48.0,37.1,27.5,-5.9,-14.4,-21.8,10,10,10,29.75,29.35,6,1,21,0.00
2013-11-13,58.5,32.0,25.7,2.0,-18.3,-24.4,10,10,10,29.83,29.70,5,1,11,0.00
2013-11-14,62.2,40.0,27.3,5.0,-12.1,-22.0,10,10,10,29.70,29.56,4,1,10,0.00
2013-11-15,69.3,47.9,38.8,10.3,-6.0,-13.7,10,10,10,29.62,29.52,4,0,7,0.00
2013-11-16,48.4,47.8,46.6,-5.6,-6.1,-7.0,10,10,10,29.60,29.59,2,1,3,0.00
2013-11-17,62.1,57.8,56.1,36.6,27.1,17.2,44,32,18,28.94,28.63,3,0,9,0.08
2013-11-18,72.3,54.3,45.1,37.4,4.3,-8.4,44,15,10,29.89,28.63,9,1,16,0.07
2013-11-19,53.4,40.2,32.2,-1.9,-12.0,-19.6,10,10,10,30.30,29.88,7,1,14,0.00
2013-11-20,54.0,35.1,29.1,-2.0,-15.9,-20.6,10,10,10,30.45,30.28,5,1,9,0.00
2013-11-21,48.7,38.4,30.7,-3.8,-11.2,-18.9,18,11,10,30.46,30.26,2,0,4,0.00
2013-11-22,58.6,49.5,41.5,25.8,5.5,-5.5,33,17,10,30.27,29.96,4,0,12,0.00
2013-11-23,50.2,39.1,27.7,-0.4,-12.6,-21.7,12,10,10,30.14,29.98,7,1,13,0.00
2013-11-24,34.9,23.8,18.5,-16.1,-24.8,-29.1,10,10,10,30.40,30.14,8,1,17,0.04
2013-11-25,43.2,26.1,16.9,-9.8,-22.9,-30.1,10,10,10,30.42,30.19,3,0,7,0.00
2013-11-26,34.3,32.9,32.2,13.1,-3.2,-19.0,43,24,10,30.19,29.57,3,0,10,0.00
2013-11-27,36.3,32.5,24.4,15.7,-0.6,-24.2,45,28,10,29.95,29.49,7,1,14,0.00
2013-11-28,40.8,28.6,21.9,-11.5,-21.0,-26.2,10,10,10,30.35,29.95,5,1,12,0.00
2013-11-29,47.7,30.9,25.3,-6.3,-19.2,-23.5,10,10,10,30.59,30.34,6,1,13,0.00
2013-11-30,35.8,28.2,23.4,-15.4,-21.3,-25.1,10,10,10,30.59,30.24,2,0,6,0.00
2013-12-1,43.2,32.2,24.1,-9.7,-18.2,-24.5,10,10,10,30.24,29.92,3,0,5,0.00
2013-12-2,42.8,38.4,35.2,-10.1,-13.4,-15.8,10,10,10,29.92,29.79,4,0,7,0.00
2013-12-3,61.2,42.6,35.8,4.2,-10.1,-15.4,10,10,10,29.90,29.79,4,0,7,0.00
2013-12-4,61.5,45.4,37.6,20.2,-4.6,-14.0,34,13,10,29.99,29.88,4,0,7,0.00
2013-12-5,73.4,54.7,44.6,36.2,20.9,4.8,49,29,10,30.60,29.83,4,0,10,0.00
2013-12-6,59.0,44.3,35.6,40.2,24.5,16.9,50,45,42,30.09,29.80,5,1,13,0.00
2013-12-7,39.6,33.5,26.4,17.1,-3.8,-22.7,47,24,10,30.34,29.92,4,0,11,0.00
2013-12-8,26.8,24.5,22.6,2.2,-15.1,-25.2,34,18,10,30.04,29.76,0,0,0,0.00
2013-12-9,34.9,31.3,26.8,13.9,10.2,2.2,45,41,34,29.77,29.51,2,0,4,0.00
2013-12-10,38.5,30.3,23.0,11.8,-5.4,-25.3,41,24,10,29.69,29.47,7,0,13,0.00
2013-12-11,46.6,24.8,0.0,-7.0,-23.0,-28.6,10,10,10,29.93,29.14,3,0,7,0.00
2013-12-12,36.7,22.9,15.6,-14.8,-25.4,-31.1,10,10,10,30.09,29.16,5,1,14,0.00
2013-12-13,49.3,29.1,18.9,-5.1,-20.6,-28.6,10,10,10,29.99,29.16,4,1,8,0.00
2013-12-14,51.4,31.3,0.0,51.2,10.2,-19.0,99,57,10,30.00,28.99,3,0,5,0.01
2013-12-15,48.7,34.0,29.3,48.5,33.7,29.1,99,99,99,29.79,29.50,1,0,2,0.00
2013-12-16,32.5,30.6,28.9,32.3,30.3,28.7,99,99,99,29.96,29.78,0,0,2,0.00
2013-12-17,55.8,33.2,28.9,55.5,33.0,28.7,99,99,99,29.97,29.72,0,0,1,0.00
2013-12-18,37.9,31.3,28.2,37.7,31.0,28.0,99,99,99,30.14,29.05,1,0,2,0.00
2013-12-19,48.7,37.9,27.3,48.5,37.7,27.1,99,99,99,29.89,29.02,0,0,1,0.00
2013-12-20,53.1,46.1,41.2,52.8,45.8,40.9,99,99,99,29.85,29.74,0,0,2,0.00
2013-12-23,53.1,42.6,34.7,52.8,42.3,34.5,99,99,99,29.95,28.97,1,0,2,0.00
2013-12-24,36.9,29.9,19.4,36.6,29.6,19.2,99,99,99,30.07,29.13,1,0,2,0.00
2013-12-25,30.6,22.8,13.3,30.3,22.5,-32.9,99,99,10,30.16,29.92,0,0,1,0.00
2013-12-26,42.1,30.9,22.8,41.8,30.6,22.6,99,99,99,29.93,29.13,0,0,2,0.00
2013-12-27,56.1,36.4,0.0,55.9,36.3,28.0,99,99,99,30.01,29.25,1,0,2,0.00
2013-12-28,65.5,43.0,31.5,65.2,42.7,31.2,99,99,99,29.95,29.75,1,0,2,0.00
2013-12-29,45.9,43.3,40.1,45.6,43.1,39.8,99,99,99,29.76,28.53,1,0,2,0.00
2013-12-30,42.6,36.5,27.1,42.4,36.2,26.9,99,99,99,29.08,28.75,1,0,2,0.00
2013-12-31,42.8,29.9,24.8,42.5,29.7,24.6,99,99,99,29.93,29.01,1,0,2,0.00
2014-1-1,53.2,35.2,25.0,29.8,-1.3,-20.3,99,37,10,30.00,29.73,7,1,10,0.30
2014-1-2,39.9,32.5,29.3,-12.2,-18.0,-21.7,10,10,10,29.73,29.29,8,2,11,0.00